createdAt,value
2022-08-10T00:00:37.108Z,99.90
2022-08-10T00:02:44.619Z,99.90
2022-08-10T00:04:52.573Z,99.90
2022-08-10T00:06:57.039Z,99.90
2022-08-10T00:09:04.016Z,99.90
2022-08-10T00:11:15.368Z,99.90
2022-08-10T00:13:20.787Z,99.90
2022-08-10T00:15:52.746Z,99.90
2022-08-10T00:17:51.795Z,99.90
2022-08-10T00:20:03.785Z,99.90
2022-08-10T00:22:16.896Z,99.90
2022-08-10T00:24:26.537Z,99.90
2022-08-10T00:27:58.521Z,99.90
2022-08-10T00:28:58.993Z,99.90
2022-08-10T00:31:03.475Z,99.90
2022-08-10T00:35:13.470Z,99.90
2022-08-10T00:37:18.572Z,99.90
2022-08-10T00:39:23.608Z,99.90
2022-08-10T00:41:28.289Z,99.90
2022-08-10T00:43:35.342Z,99.90
2022-08-10T00:45:39.448Z,99.90
2022-08-10T00:47:46.087Z,99.90
2022-08-10T00:49:52.821Z,99.90
2022-08-10T00:51:56.512Z,99.90
2022-08-10T00:54:02.618Z,99.90
2022-08-10T00:58:32.155Z,99.90
2022-08-10T01:02:44.109Z,99.90
2022-08-10T01:04:59.317Z,99.90
2022-08-10T01:07:16.167Z,99.90
2022-08-10T01:09:34.136Z,99.90
2022-08-10T01:12:38.865Z,99.90
2022-08-10T01:16:27.622Z,99.90
2022-08-10T01:20:53.864Z,99.90
2022-08-10T01:26:12.479Z,99.90
2022-08-10T01:28:23.489Z,99.90
2022-08-10T01:30:34.093Z,99.90
2022-08-10T01:32:59.114Z,99.90
2022-08-10T01:35:14.148Z,99.90
2022-08-10T01:37:23.251Z,99.90
2022-08-10T01:39:30.215Z,99.90
2022-08-10T01:41:46.201Z,99.90
2022-08-10T01:44:03.747Z,99.90
2022-08-10T01:46:12.946Z,99.90
2022-08-10T03:22:45.603Z,99.90
2022-08-10T03:26:57.325Z,99.90
2022-08-10T03:29:05.321Z,99.90
2022-08-10T03:31:09.982Z,99.90
2022-08-10T03:33:14.337Z,99.90
2022-08-10T03:35:23.023Z,99.90
2022-08-10T03:37:27.692Z,99.90
2022-08-10T03:39:31.743Z,99.90
2022-08-10T03:41:47.801Z,99.90
2022-08-10T03:44:03.353Z,99.90
2022-08-10T03:46:11.524Z,99.90
2022-08-10T03:50:45.678Z,99.90
2022-08-10T03:52:47.496Z,99.90
2022-08-10T03:54:52.442Z,99.90
2022-08-10T03:56:56.294Z,99.90
2022-08-10T04:11:59.992Z,99.90
2022-08-10T04:14:04.177Z,99.90
2022-08-10T04:16:08.387Z,99.90
2022-08-10T04:18:12.764Z,99.90
2022-08-10T04:20:21.834Z,99.90
2022-08-10T04:22:28.599Z,99.90
2022-08-10T04:24:35.609Z,99.90
2022-08-10T04:26:40.387Z,99.90
2022-08-10T04:28:49.018Z,99.90
2022-08-10T04:30:55.061Z,99.90
2022-08-10T04:33:03.679Z,99.90
2022-08-10T04:35:12.416Z,99.90
2022-08-10T04:37:17.445Z,99.90
2022-08-10T04:39:22.655Z,99.90
2022-08-10T04:41:30.143Z,99.90
2022-08-10T04:43:35.564Z,99.90
2022-08-10T04:45:48.361Z,99.90
2022-08-10T04:48:00.544Z,99.90
2022-08-10T04:50:08.593Z,99.90
2022-08-10T04:52:17.490Z,99.90
2022-08-10T04:54:21.471Z,99.90
2022-08-10T04:56:32.047Z,99.90
2022-08-10T04:58:36.314Z,99.90
2022-08-10T05:00:42.056Z,99.90
2022-08-10T05:02:46.588Z,99.90
2022-08-10T05:04:52.937Z,99.90
2022-08-10T05:09:01.513Z,99.90
2022-08-10T05:11:05.688Z,99.90
2022-08-10T05:13:12.495Z,99.90
2022-08-10T05:15:18.604Z,99.90
2022-08-10T05:17:22.758Z,99.90
2022-08-10T05:20:04.639Z,99.90
2022-08-10T05:24:09.114Z,99.90
2022-08-10T05:28:18.073Z,99.90
2022-08-10T05:30:25.044Z,99.90
2022-08-10T05:32:28.716Z,99.90
2022-08-10T05:38:41.692Z,99.90
2022-08-10T05:42:52.988Z,99.90
2022-08-10T05:44:58.452Z,99.90
2022-08-10T05:47:02.685Z,99.90
2022-08-10T05:49:06.527Z,99.90
2022-08-10T05:51:11.824Z,99.90
2022-08-10T05:55:39.453Z,99.90
2022-08-10T06:00:29.459Z,99.90
2022-08-10T06:02:41.705Z,98.90
2022-08-10T06:04:47.710Z,98.10
2022-08-10T06:06:53.736Z,99.00
2022-08-10T06:08:59.447Z,97.60
2022-08-10T06:35:35.910Z,87.70
2022-08-10T06:37:43.300Z,88.90
2022-08-10T06:39:57.997Z,87.10
2022-08-10T06:42:15.783Z,91.80
2022-08-10T06:44:27.512Z,86.00
2022-08-10T06:46:36.574Z,86.00
2022-08-10T06:55:16.974Z,72.50
2022-08-10T07:10:02.698Z,53.00
2022-08-10T07:16:28.351Z,54.60
2022-08-10T07:20:49.341Z,51.10
2022-08-10T07:40:25.282Z,41.30
2022-08-10T07:48:49.879Z,43.30
2022-08-10T07:50:59.422Z,43.60
2022-08-10T07:53:05.505Z,44.30
2022-08-10T07:57:24.952Z,45.60
2022-08-10T07:59:39.675Z,46.70
2022-08-10T08:08:22.767Z,45.70
2022-08-10T08:10:28.781Z,46.70
2022-08-10T08:12:37.188Z,45.40
2022-08-10T08:14:45.399Z,46.00
2022-08-10T08:41:41.641Z,38.10
2022-08-10T08:46:33.380Z,40.30
2022-08-10T08:48:55.237Z,42.30
2022-08-10T08:51:18.869Z,43.90
2022-08-10T08:54:03.015Z,40.80
2022-08-10T08:56:16.690Z,43.70
2022-08-10T08:58:37.220Z,51.00
2022-08-10T09:08:00.350Z,41.40
2022-08-10T09:12:46.716Z,44.70
2022-08-10T09:14:57.511Z,44.40
2022-08-10T09:17:13.687Z,43.60
2022-08-10T09:21:58.624Z,37.40
2022-08-10T09:24:20.352Z,39.90
2022-08-10T09:31:10.771Z,45.30
2022-08-10T09:36:24.755Z,36.20
2022-08-10T09:38:24.871Z,37.70
2022-08-10T09:40:59.768Z,39.20
2022-08-10T09:43:25.785Z,37.40
2022-08-10T09:50:58.978Z,38.20
2022-08-10T09:53:10.082Z,37.00
2022-08-10T09:55:18.688Z,39.20
2022-08-10T09:57:43.965Z,40.00
2022-08-10T10:02:27.670Z,40.60
2022-08-10T10:09:10.139Z,41.40
2022-08-10T10:13:52.691Z,40.70
2022-08-10T10:16:10.278Z,39.30
2022-08-10T10:20:43.701Z,36.50
2022-08-10T10:29:57.342Z,35.80
2022-08-10T10:32:10.095Z,35.60
2022-08-10T10:34:20.547Z,38.50
2022-08-10T10:36:26.189Z,37.90
2022-08-10T10:38:38.337Z,39.60
2022-08-10T10:47:47.761Z,34.20
2022-08-10T10:54:14.381Z,36.10
2022-08-10T11:21:06.490Z,33.30
2022-08-10T11:27:40.585Z,34.80
2022-08-10T11:29:53.384Z,35.30
2022-08-10T11:32:04.558Z,39.60
2022-08-10T11:34:48.975Z,42.00
2022-08-10T11:36:55.169Z,41.90
2022-08-10T11:50:49.563Z,34.50
2022-08-10T11:53:07.649Z,37.50
2022-08-10T11:57:21.148Z,39.10
2022-08-10T11:59:49.189Z,39.20
2022-08-10T12:06:28.793Z,39.00
2022-08-10T12:24:20.284Z,37.30
2022-08-10T12:26:28.414Z,37.00
2022-08-10T12:28:50.376Z,37.50
2022-08-10T12:31:05.369Z,38.90
2022-08-10T12:35:27.443Z,39.70
2022-08-10T12:37:40.342Z,37.50
2022-08-10T12:40:06.886Z,36.70
2022-08-10T12:42:36.844Z,38.30
2022-08-10T12:44:54.566Z,41.10
2022-08-10T12:47:10.474Z,41.30
2022-08-10T12:49:23.724Z,41.70
2022-08-10T12:51:30.546Z,43.90
2022-08-10T12:53:53.982Z,42.20
2022-08-10T13:03:04.732Z,42.50
2022-08-10T13:05:13.992Z,38.70
2022-08-10T13:10:02.401Z,38.00
2022-08-10T13:12:36.017Z,41.40
2022-08-10T13:16:48.482Z,37.10
2022-08-10T13:18:55.011Z,37.60
2022-08-10T13:30:10.426Z,43.50
2022-08-10T13:32:20.791Z,43.80
2022-08-10T13:34:43.766Z,42.30
2022-08-10T13:36:52.247Z,40.00
2022-08-10T13:38:58.422Z,38.00
2022-08-10T13:41:04.009Z,40.50
2022-08-10T13:43:10.332Z,40.00
2022-08-10T13:45:16.848Z,41.60
2022-08-10T13:47:29.300Z,44.90
2022-08-10T13:49:44.971Z,43.80
2022-08-10T13:51:56.606Z,42.60
2022-08-10T13:54:04.189Z,47.20
2022-08-10T13:56:14.605Z,47.30
2022-08-10T13:58:23.763Z,43.30
2022-08-10T14:00:38.248Z,43.10
2022-08-10T14:02:44.785Z,45.40
2022-08-10T14:04:48.838Z,44.70
2022-08-10T14:06:56.624Z,43.10
2022-08-10T14:11:18.029Z,45.10
2022-08-10T14:13:25.054Z,44.00
2022-08-10T14:15:33.894Z,43.30
2022-08-10T14:17:44.609Z,41.50
2022-08-10T14:19:59.054Z,44.60
2022-08-10T14:22:04.081Z,40.10
2022-08-10T14:24:08.356Z,39.90
2022-08-10T14:26:16.833Z,41.60
2022-08-10T14:30:28.897Z,41.50
2022-08-10T14:42:03.318Z,41.30
2022-08-10T14:46:07.041Z,40.80
2022-08-10T14:48:15.770Z,44.50
2022-08-10T14:50:31.698Z,46.80
2022-08-10T14:52:45.262Z,45.80
2022-08-10T14:54:53.954Z,45.20
2022-08-10T14:57:11.176Z,44.90
2022-08-10T14:59:19.511Z,43.70
2022-08-10T15:02:37.506Z,47.40
2022-08-10T15:04:01.028Z,48.70
2022-08-10T15:06:18.057Z,49.00
2022-08-10T15:08:26.349Z,47.50
2022-08-10T15:10:30.452Z,47.80
2022-08-10T15:12:38.467Z,47.60
2022-08-10T15:14:45.918Z,46.00
2022-08-10T15:16:50.378Z,46.10
2022-08-10T15:21:17.450Z,45.10
2022-08-10T15:23:29.836Z,47.20
2022-08-10T15:25:57.650Z,47.50
2022-08-10T15:28:13.592Z,46.70
2022-08-10T15:30:20.489Z,49.30
2022-08-10T15:32:50.418Z,51.40
2022-08-10T15:35:13.681Z,53.10
2022-08-10T15:40:25.401Z,44.80
2022-08-10T15:42:22.760Z,47.70
2022-08-10T15:44:38.612Z,46.90
2022-08-10T15:49:09.223Z,47.60
2022-08-10T15:51:21.287Z,48.70
2022-08-10T15:58:05.799Z,48.80
2022-08-10T16:00:18.240Z,46.40
2022-08-10T16:02:25.403Z,50.90
2022-08-10T16:04:34.483Z,51.30
2022-08-10T16:06:45.989Z,49.20
2022-08-10T16:11:24.302Z,46.90
2022-08-10T16:13:50.293Z,47.80
2022-08-10T16:16:04.358Z,44.50
2022-08-10T16:18:11.209Z,45.40
2022-08-10T16:20:25.051Z,48.10
2022-08-10T16:22:35.983Z,48.80
2022-08-10T16:29:06.431Z,49.60
2022-08-10T16:31:18.458Z,46.60
2022-08-10T16:33:52.440Z,44.10
2022-08-10T16:35:55.248Z,46.10
2022-08-10T16:38:00.224Z,44.20
2022-08-10T16:44:18.518Z,42.30
2022-08-10T16:46:27.470Z,44.80
2022-08-10T16:48:48.733Z,44.80
2022-08-10T16:50:58.191Z,46.70
2022-08-10T16:53:06.053Z,45.70
2022-08-10T16:55:24.762Z,49.60
2022-08-10T16:59:49.451Z,53.70
2022-08-10T17:01:57.534Z,52.60
2022-08-10T17:04:10.119Z,53.90
2022-08-10T17:06:20.848Z,52.90
2022-08-10T17:08:27.383Z,54.10
2022-08-10T17:10:36.299Z,54.10
2022-08-10T17:12:41.596Z,57.20
2022-08-10T17:15:09.129Z,58.20
2022-08-10T17:17:19.646Z,58.20
2022-08-10T17:19:29.422Z,58.00
2022-08-10T17:21:38.275Z,59.00
2022-08-10T17:23:58.022Z,60.60
2022-08-10T17:26:07.439Z,65.00
2022-08-10T17:28:18.645Z,62.40
2022-08-10T17:30:57.458Z,64.90
2022-08-10T17:33:05.780Z,65.10
2022-08-10T17:35:22.532Z,65.00
2022-08-10T17:37:33.193Z,65.90
2022-08-10T17:39:44.154Z,67.60
2022-08-10T17:41:54.653Z,69.80
2022-08-10T17:44:02.688Z,69.10
2022-08-10T17:46:07.575Z,70.00
2022-08-10T17:48:14.118Z,70.90
2022-08-10T17:50:24.424Z,73.30
2022-08-10T17:52:35.889Z,72.00
2022-08-10T17:54:44.292Z,73.70
2022-08-10T18:56:57.802Z,73.20
2022-08-10T18:59:13.354Z,74.00
2022-08-10T19:01:30.650Z,75.50
2022-08-10T19:04:04.885Z,75.90
2022-08-10T19:06:20.840Z,83.30
2022-08-10T19:09:04.484Z,79.40
2022-08-10T19:11:27.959Z,79.40
2022-08-10T19:15:46.513Z,96.90
2022-08-10T19:18:06.384Z,82.80
2022-08-10T19:20:24.254Z,82.80
2022-08-10T19:22:43.450Z,85.60
2022-08-10T19:24:58.156Z,86.00
2022-08-10T19:27:11.643Z,89.30
2022-08-10T19:30:08.375Z,86.90
2022-08-10T19:32:05.622Z,86.30
2022-08-10T19:34:24.434Z,87.80
2022-08-10T19:36:37.442Z,88.30
2022-08-10T19:38:50.867Z,89.50
2022-08-10T19:41:10.322Z,90.50
2022-08-10T19:43:30.753Z,91.80
2022-08-10T19:46:02.708Z,91.30
2022-08-10T19:48:20.961Z,92.30
2022-08-10T19:50:34.595Z,92.30
2022-08-10T19:52:48.613Z,92.80
2022-08-10T19:55:00.010Z,93.00
2022-08-10T19:57:12.927Z,92.90
2022-08-10T20:00:15.610Z,92.90
2022-08-10T20:01:56.428Z,93.80
2022-08-10T20:04:05.527Z,94.50
2022-08-10T20:06:20.623Z,95.70
2022-08-10T20:08:29.760Z,96.50
2022-08-10T20:10:43.053Z,96.60
2022-08-10T20:12:56.223Z,98.00
2022-08-10T20:15:06.258Z,99.00
2022-08-10T20:17:18.018Z,97.50
2022-08-10T20:19:53.198Z,98.20
2022-08-10T20:21:58.667Z,98.20
2022-08-10T20:24:11.207Z,99.20
2022-08-10T20:26:24.187Z,99.80
2022-08-10T20:28:37.567Z,99.50
2022-08-10T20:30:50.010Z,99.20
2022-08-10T20:32:57.894Z,98.70
2022-08-10T20:35:08.038Z,99.10
2022-08-10T20:38:03.175Z,99.20
2022-08-10T20:39:55.969Z,98.80
2022-08-10T20:42:05.889Z,99.30
2022-08-10T20:44:21.000Z,98.40
2022-08-10T20:46:45.501Z,99.90
2022-08-10T20:49:11.403Z,99.90
2022-08-10T20:51:58.483Z,99.70
2022-08-10T20:53:55.686Z,99.90
2022-08-10T20:56:11.843Z,99.90
2022-08-10T20:58:37.653Z,99.90
2022-08-10T21:00:54.622Z,99.90
2022-08-10T21:03:22.031Z,99.90
2022-08-10T21:05:40.652Z,99.90
2022-08-10T21:08:02.890Z,99.90
2022-08-10T21:10:20.153Z,99.90
2022-08-10T21:12:46.206Z,99.90
2022-08-10T21:17:13.862Z,99.90
2022-08-10T21:19:54.008Z,99.90
2022-08-10T21:22:16.844Z,99.90
2022-08-10T21:24:25.928Z,99.90
2022-08-10T21:26:41.346Z,99.90
2022-08-10T21:29:21.284Z,99.90
2022-08-10T21:31:48.520Z,99.90
2022-08-10T21:34:10.125Z,99.90
2022-08-10T21:36:22.207Z,99.90
2022-08-10T21:38:35.466Z,99.90
2022-08-10T21:41:18.689Z,99.90
2022-08-10T21:44:02.263Z,99.90
2022-08-10T21:46:39.940Z,99.90
2022-08-10T21:49:22.817Z,99.90
2022-08-10T21:52:01.418Z,99.90
2022-08-10T21:54:31.110Z,99.90
2022-08-10T21:56:59.768Z,99.90
2022-08-10T21:59:24.365Z,99.90
2022-08-10T22:04:20.601Z,99.90
2022-08-10T22:06:52.302Z,99.90
2022-08-10T22:09:20.764Z,99.90
2022-08-10T22:11:45.135Z,99.90
2022-08-10T22:14:09.618Z,99.90
2022-08-10T22:16:43.329Z,99.90
2022-08-10T22:19:14.945Z,99.90
2022-08-10T22:21:52.030Z,99.90
2022-08-10T22:24:30.234Z,99.90
2022-08-10T22:29:42.913Z,99.90
2022-08-10T22:32:15.858Z,99.90
2022-08-10T22:37:32.208Z,99.90
2022-08-10T22:40:13.868Z,99.90
2022-08-10T22:42:58.957Z,99.90
2022-08-10T22:45:26.543Z,99.90
2022-08-10T22:47:50.373Z,99.90
2022-08-10T22:49:57.160Z,99.90
2022-08-10T22:52:16.161Z,99.90
2022-08-10T22:54:45.298Z,99.90
2022-08-10T22:57:07.297Z,99.90
2022-08-10T22:59:13.509Z,99.90
2022-08-10T23:01:40.751Z,99.90
2022-08-10T23:03:51.547Z,99.90
2022-08-10T23:06:02.184Z,99.90
2022-08-10T23:08:30.057Z,99.90
2022-08-10T23:12:49.739Z,99.90
2022-08-10T23:15:15.793Z,99.90
2022-08-10T23:18:00.418Z,99.90
2022-08-10T23:20:10.269Z,99.90
2022-08-10T23:22:16.253Z,99.90
2022-08-10T23:24:28.903Z,99.90
2022-08-10T23:26:34.598Z,99.90
2022-08-10T23:28:58.199Z,99.90
2022-08-10T23:31:12.472Z,99.90
2022-08-10T23:33:38.302Z,99.90
2022-08-10T23:36:05.480Z,99.90
2022-08-10T23:38:16.677Z,99.90
2022-08-10T23:40:23.409Z,99.90
2022-08-10T23:42:37.795Z,99.90
2022-08-10T23:44:45.137Z,99.90
2022-08-10T23:46:49.806Z,99.90
2022-08-10T23:48:55.861Z,99.90
2022-08-10T23:51:03.491Z,99.90
2022-08-10T23:53:28.875Z,99.90
2022-08-10T23:55:49.442Z,99.90
2022-08-10T23:57:59.721Z,99.90
